createdAt,value
2019-03-25T00:00:10.248Z,2.10
2019-03-25T00:02:38.849Z,2.20
2019-03-25T00:05:07.618Z,2.10
2019-03-25T00:07:36.152Z,2.40
2019-03-25T00:10:06.145Z,2.15
2019-03-25T00:12:34.700Z,2.37
2019-03-25T00:15:04.988Z,2.20
2019-03-25T00:17:33.484Z,2.65
2019-03-25T00:20:01.927Z,2.60
2019-03-25T00:22:30.370Z,2.05
2019-03-25T00:24:58.863Z,2.08
2019-03-25T00:27:27.394Z,2.30
2019-03-25T00:29:55.946Z,2.25
2019-03-25T00:32:24.480Z,2.08
2019-03-25T00:34:55.237Z,2.30
2019-03-25T00:37:23.676Z,2.58
2019-03-25T00:39:52.170Z,1.92
2019-03-25T00:42:20.616Z,2.40
2019-03-25T00:44:49.629Z,2.22
2019-03-25T00:47:18.092Z,2.52
2019-03-25T00:49:46.545Z,2.30
2019-03-25T00:52:14.981Z,2.10
2019-03-25T00:54:49.861Z,2.37
2019-03-25T00:57:13.891Z,2.10
2019-03-25T00:59:42.329Z,2.40
2019-03-25T01:02:10.788Z,2.45
2019-03-25T01:04:39.307Z,2.10
2019-03-25T01:07:07.740Z,2.50
2019-03-25T01:09:36.197Z,2.70
2019-03-25T01:12:05.024Z,2.47
2019-03-25T01:14:33.523Z,2.15
2019-03-25T01:17:02.067Z,2.55
2019-03-25T01:19:30.520Z,2.35
2019-03-25T01:21:58.960Z,2.50
2019-03-25T01:24:27.416Z,2.50
2019-03-25T01:26:55.927Z,3.02
2019-03-25T01:29:24.367Z,2.47
2019-03-25T01:31:52.925Z,2.75
2019-03-25T01:34:21.360Z,2.62
2019-03-25T01:36:49.787Z,2.55
2019-03-25T01:39:18.252Z,2.40
2019-03-25T01:41:46.691Z,2.58
2019-03-25T01:44:15.160Z,2.33
2019-03-25T01:46:44.795Z,2.37
2019-03-25T01:49:13.231Z,2.42
2019-03-25T01:51:41.671Z,2.65
2019-03-25T01:54:10.199Z,2.25
2019-03-25T01:56:38.645Z,2.65
2019-03-25T01:59:07.176Z,2.65
2019-03-25T02:01:35.709Z,2.60
2019-03-25T02:04:04.162Z,2.50
2019-03-25T02:06:32.603Z,2.62
2019-03-25T02:09:01.196Z,2.52
2019-03-25T02:11:29.643Z,2.77
2019-03-25T02:13:58.079Z,2.80
2019-03-25T02:16:26.547Z,2.02
2019-03-25T02:18:54.988Z,2.33
2019-03-25T02:21:23.420Z,2.52
2019-03-25T02:23:51.955Z,2.35
2019-03-25T02:26:20.392Z,2.50
2019-03-25T02:28:48.852Z,2.40
2019-03-25T02:31:17.328Z,2.90
2019-03-25T02:33:45.845Z,3.15
2019-03-25T02:36:26.232Z,2.67
2019-03-25T02:38:54.670Z,2.40
2019-03-25T02:41:23.108Z,2.40
2019-03-25T02:43:51.574Z,2.52
2019-03-25T02:46:20.110Z,3.02
2019-03-25T02:48:48.549Z,2.30
2019-03-25T02:51:17.001Z,2.20
2019-03-25T02:53:45.441Z,2.67
2019-03-25T02:56:13.886Z,2.70
2019-03-25T02:58:42.354Z,3.15
2019-03-25T03:01:10.797Z,3.47
2019-03-25T03:03:39.237Z,2.65
2019-03-25T03:06:08.824Z,2.80
2019-03-25T03:08:37.273Z,3.08
2019-03-25T03:11:05.717Z,2.70
2019-03-25T03:13:34.260Z,2.65
2019-03-25T03:16:02.713Z,2.47
2019-03-25T03:18:31.227Z,2.50
2019-03-25T03:20:59.689Z,2.92
2019-03-25T03:23:28.160Z,2.58
2019-03-25T03:25:58.158Z,3.35
2019-03-25T03:28:26.948Z,2.90
2019-03-25T03:30:55.415Z,3.85
2019-03-25T03:33:23.969Z,3.22
2019-03-25T03:35:52.441Z,3.35
2019-03-25T03:38:20.943Z,3.33
2019-03-25T03:40:49.457Z,3.60
2019-03-25T03:43:17.912Z,2.85
2019-03-25T03:45:46.445Z,3.35
2019-03-25T03:48:15.040Z,2.95
2019-03-25T03:50:43.585Z,3.52
2019-03-25T03:53:12.166Z,3.00
2019-03-25T03:55:40.690Z,3.22
2019-03-25T03:58:09.637Z,3.27
2019-03-25T04:00:38.245Z,3.67
2019-03-25T04:03:06.849Z,3.85
2019-03-25T04:05:35.321Z,2.90
2019-03-25T04:08:03.901Z,3.80
2019-03-25T04:10:32.418Z,3.42
2019-03-25T04:13:00.963Z,3.02
2019-03-25T04:15:53.595Z,3.90
2019-03-25T04:18:22.138Z,3.45
2019-03-25T04:20:50.644Z,3.52
2019-03-25T04:23:19.087Z,3.10
2019-03-25T04:25:47.562Z,3.52
2019-03-25T04:28:16.041Z,2.87
2019-03-25T04:30:44.515Z,3.05
2019-03-25T04:33:13.025Z,4.20
2019-03-25T04:35:41.549Z,3.27
2019-03-25T04:38:10.073Z,3.50
2019-03-25T04:40:38.532Z,3.45
2019-03-25T04:43:07.045Z,3.77
2019-03-25T04:45:35.483Z,3.35
2019-03-25T04:48:03.947Z,4.08
2019-03-25T04:50:32.385Z,3.62
2019-03-25T04:53:00.888Z,3.62
2019-03-25T04:55:29.373Z,3.47
2019-03-25T04:57:57.826Z,3.35
2019-03-25T05:00:36.941Z,4.03
2019-03-25T05:03:05.753Z,3.52
2019-03-25T05:05:36.023Z,3.77
2019-03-25T05:08:04.876Z,3.85
2019-03-25T05:10:33.324Z,3.65
2019-03-25T05:13:01.772Z,4.30
2019-03-25T05:15:30.245Z,3.72
2019-03-25T05:17:58.685Z,4.25
2019-03-25T05:20:27.180Z,4.28
2019-03-25T05:22:55.639Z,3.30
2019-03-25T05:25:24.155Z,4.10
2019-03-25T05:27:52.595Z,4.37
2019-03-25T05:30:23.010Z,4.15
2019-03-25T05:32:51.286Z,3.62
2019-03-25T05:35:19.731Z,3.83
2019-03-25T05:37:48.191Z,4.00
2019-03-25T05:40:16.671Z,4.15
2019-03-25T05:42:45.149Z,3.90
2019-03-25T05:45:13.960Z,3.70
2019-03-25T05:47:42.413Z,4.45
2019-03-25T05:50:11.021Z,4.20
2019-03-25T05:52:39.508Z,4.65
2019-03-25T05:55:08.094Z,4.33
2019-03-25T05:57:36.547Z,3.25
2019-03-25T06:00:05.855Z,4.45
2019-03-25T06:02:34.302Z,3.95
2019-03-25T06:05:02.827Z,4.00
2019-03-25T06:07:31.305Z,4.10
2019-03-25T06:09:59.743Z,3.70
2019-03-25T06:12:28.215Z,4.50
2019-03-25T06:14:56.671Z,4.12
2019-03-25T06:17:25.141Z,4.03
2019-03-25T06:19:54.375Z,4.87
2019-03-25T06:22:22.854Z,3.62
2019-03-25T06:24:51.294Z,4.62
2019-03-25T06:27:19.749Z,3.90
2019-03-25T06:29:48.208Z,3.55
2019-03-25T06:32:16.661Z,3.80
2019-03-25T06:34:45.127Z,3.22
2019-03-25T06:37:13.679Z,3.72
2019-03-25T06:39:42.124Z,3.58
2019-03-25T06:42:10.564Z,3.85
2019-03-25T06:44:39.040Z,3.55
2019-03-25T06:47:07.496Z,4.47
2019-03-25T06:49:35.946Z,3.00
2019-03-25T06:52:04.661Z,3.40
2019-03-25T06:54:33.159Z,3.58
2019-03-25T06:57:01.609Z,3.72
2019-03-25T06:59:30.168Z,3.27
2019-03-25T07:01:58.612Z,3.27
2019-03-25T07:04:27.123Z,3.72
2019-03-25T07:06:55.664Z,3.50
2019-03-25T07:09:24.121Z,3.37
2019-03-25T07:11:52.567Z,3.80
2019-03-25T07:14:21.166Z,3.72
2019-03-25T07:16:49.608Z,3.40
2019-03-25T07:19:18.056Z,3.45
2019-03-25T07:21:46.613Z,3.25
2019-03-25T07:24:15.060Z,2.90
2019-03-25T07:26:43.512Z,3.08
2019-03-25T07:29:11.984Z,3.62
2019-03-25T07:31:40.423Z,2.98
2019-03-25T07:34:08.876Z,3.60
2019-03-25T07:36:37.349Z,2.90
2019-03-25T07:39:07.240Z,3.58
2019-03-25T07:41:35.793Z,3.10
2019-03-25T07:44:04.498Z,2.70
2019-03-25T07:46:33.008Z,3.30
2019-03-25T07:49:01.460Z,2.90
2019-03-25T07:51:30.007Z,3.12
2019-03-25T07:54:00.098Z,3.55
2019-03-25T07:56:28.609Z,2.50
2019-03-25T07:58:57.137Z,2.72
2019-03-25T08:01:25.641Z,3.00
2019-03-25T08:03:54.096Z,3.15
2019-03-25T08:06:22.549Z,2.70
2019-03-25T08:08:50.997Z,2.10
2019-03-25T08:11:19.472Z,2.20
2019-03-25T08:13:47.990Z,2.72
2019-03-25T08:16:16.435Z,2.60
2019-03-25T08:18:44.947Z,3.00
2019-03-25T08:21:13.559Z,2.17
2019-03-25T08:23:42.015Z,2.25
2019-03-25T08:26:10.448Z,2.02
2019-03-25T08:28:38.916Z,2.15
2019-03-25T08:31:07.426Z,2.02
2019-03-25T08:33:35.857Z,2.62
2019-03-25T08:36:04.542Z,2.20
2019-03-25T08:38:33.013Z,2.20
2019-03-25T08:41:01.462Z,2.37
2019-03-25T08:43:29.985Z,2.33
2019-03-25T08:45:58.547Z,2.83
2019-03-25T08:48:27.116Z,2.10
2019-03-25T08:50:55.589Z,2.40
2019-03-25T08:53:24.115Z,2.60
2019-03-25T08:55:52.557Z,2.35
2019-03-25T08:58:21.023Z,2.45
2019-03-25T09:00:52.239Z,2.67
2019-03-25T09:03:20.826Z,2.72
2019-03-25T09:05:49.380Z,2.37
2019-03-25T09:08:17.819Z,2.15
2019-03-25T09:10:46.356Z,2.40
2019-03-25T09:13:14.866Z,2.05
2019-03-25T09:15:43.296Z,2.25
2019-03-25T09:18:11.897Z,2.27
2019-03-25T09:20:41.125Z,2.20
2019-03-25T09:23:09.559Z,2.50
2019-03-25T09:25:37.999Z,2.50
2019-03-25T09:28:06.467Z,2.40
2019-03-25T09:31:13.927Z,2.08
2019-03-25T09:33:42.471Z,2.30
2019-03-25T09:36:10.989Z,2.15
2019-03-25T09:38:39.603Z,2.25
2019-03-25T09:41:08.133Z,2.22
2019-03-25T09:43:56.025Z,2.35
2019-03-25T09:46:24.844Z,2.00
2019-03-25T09:48:53.293Z,1.87
2019-03-25T09:51:21.741Z,2.10
2019-03-25T09:53:50.215Z,1.95
2019-03-25T09:56:18.934Z,2.15
2019-03-25T09:58:47.380Z,1.75
2019-03-25T10:01:15.917Z,1.55
2019-03-25T10:03:44.360Z,1.90
2019-03-25T10:06:12.875Z,2.00
2019-03-25T10:08:41.625Z,1.90
2019-03-25T10:11:10.080Z,2.02
2019-03-25T10:13:38.532Z,2.00
2019-03-25T10:16:06.999Z,2.37
2019-03-25T10:18:35.451Z,2.45
2019-03-25T10:21:04.569Z,1.82
2019-03-25T10:23:33.128Z,2.17
2019-03-25T10:26:01.573Z,2.17
2019-03-25T10:28:30.101Z,1.92
2019-03-25T10:30:58.580Z,1.80
2019-03-25T10:33:27.032Z,2.00
2019-03-25T10:35:55.487Z,1.82
2019-03-25T10:38:23.951Z,1.72
2019-03-25T10:40:52.413Z,1.95
2019-03-25T10:43:20.919Z,1.80
2019-03-25T10:45:49.394Z,1.70
2019-03-25T10:48:17.976Z,1.50
2019-03-25T10:50:46.418Z,1.70
2019-03-25T10:53:15.055Z,1.87
2019-03-25T10:55:43.501Z,2.33
2019-03-25T10:58:12.007Z,1.75
2019-03-25T11:00:40.544Z,1.75
2019-03-25T11:03:09.051Z,2.20
2019-03-25T11:05:37.504Z,2.37
2019-03-25T11:08:06.046Z,5.55
2019-03-25T11:10:34.491Z,2.58
2019-03-25T11:13:03.008Z,2.40
2019-03-25T11:15:31.563Z,2.00
2019-03-25T11:18:00.072Z,1.70
2019-03-25T11:20:28.514Z,1.98
2019-03-25T11:22:57.042Z,1.92
2019-03-25T11:25:25.488Z,1.55
2019-03-25T11:27:54.589Z,2.00
2019-03-25T11:30:49.784Z,1.92
2019-03-25T11:33:18.296Z,2.37
2019-03-25T11:35:46.811Z,2.08
2019-03-25T11:38:15.273Z,1.95
2019-03-25T11:40:43.789Z,1.70
2019-03-25T11:43:12.245Z,1.95
2019-03-25T11:45:40.785Z,1.75
2019-03-25T11:48:09.230Z,1.87
2019-03-25T11:50:37.680Z,2.30
2019-03-25T11:53:06.156Z,2.12
2019-03-25T11:55:34.608Z,1.90
2019-03-25T11:58:03.043Z,1.87
2019-03-25T12:00:31.577Z,2.20
2019-03-25T12:03:00.022Z,1.90
2019-03-25T12:05:28.457Z,2.37
2019-03-25T12:07:57.004Z,1.90
2019-03-25T12:10:25.444Z,1.95
2019-03-25T12:12:54.000Z,1.85
2019-03-25T12:15:22.461Z,2.27
2019-03-25T12:17:50.921Z,2.25
2019-03-25T12:20:19.600Z,2.10
2019-03-25T12:22:48.088Z,2.08
2019-03-25T12:25:17.531Z,2.15
2019-03-25T12:27:53.435Z,2.20
2019-03-25T12:30:22.135Z,2.42
2019-03-25T12:32:50.747Z,2.08
2019-03-25T12:35:19.345Z,1.85
2019-03-25T12:38:07.199Z,2.08
2019-03-25T12:40:43.256Z,1.80
2019-03-25T12:43:11.775Z,2.20
2019-03-25T12:45:40.215Z,2.15
2019-03-25T12:48:08.676Z,1.92
2019-03-25T12:50:37.192Z,1.80
2019-03-25T12:53:05.768Z,1.70
2019-03-25T12:55:34.231Z,1.70
2019-03-25T12:58:02.683Z,1.35
2019-03-25T13:00:39.349Z,1.80
2019-03-25T13:03:08.331Z,1.90
2019-03-25T13:05:37.411Z,1.42
2019-03-25T13:08:06.015Z,1.80
2019-03-25T13:10:34.634Z,1.80
2019-03-25T13:13:03.247Z,1.95
2019-03-25T13:15:31.785Z,2.05
2019-03-25T13:18:00.495Z,1.75
2019-03-25T13:20:28.936Z,1.50
2019-03-25T13:22:57.474Z,1.80
2019-03-25T13:25:25.990Z,1.55
2019-03-25T13:27:54.440Z,1.98
2019-03-25T13:30:22.985Z,2.20
2019-03-25T13:32:51.428Z,1.75
2019-03-25T13:35:19.980Z,1.92
2019-03-25T13:37:48.455Z,1.90
2019-03-25T13:40:16.968Z,1.92
2019-03-25T13:42:46.246Z,1.90
2019-03-25T13:45:14.796Z,2.20
2019-03-25T13:47:43.303Z,1.87
2019-03-25T13:50:11.887Z,2.20
2019-03-25T13:52:40.362Z,2.02
2019-03-25T13:55:08.889Z,2.70
2019-03-25T13:57:37.350Z,2.10
2019-03-25T14:00:07.478Z,2.00
2019-03-25T14:02:35.991Z,1.87
2019-03-25T14:05:05.559Z,1.85
2019-03-25T14:07:34.039Z,1.80
2019-03-25T14:10:02.818Z,2.20
2019-03-25T14:12:31.367Z,1.98
2019-03-25T14:14:59.843Z,1.98
2019-03-25T14:17:28.291Z,2.30
2019-03-25T14:20:16.234Z,1.98
2019-03-25T14:22:44.723Z,2.15
2019-03-25T14:25:13.232Z,2.00
2019-03-25T14:27:41.703Z,2.17
2019-03-25T14:30:14.728Z,2.25
2019-03-25T14:32:40.941Z,2.12
2019-03-25T14:35:30.316Z,1.90
2019-03-25T14:37:58.764Z,2.37
2019-03-25T14:40:27.199Z,2.55
2019-03-25T14:42:55.682Z,2.47
2019-03-25T14:45:26.690Z,2.30
2019-03-25T14:47:54.295Z,2.25
2019-03-25T14:50:22.759Z,2.42
2019-03-25T14:52:51.203Z,2.45
2019-03-25T14:55:19.652Z,2.50
2019-03-25T14:57:48.118Z,2.35
2019-03-25T15:00:24.644Z,2.60
2019-03-25T15:02:47.183Z,2.42
2019-03-25T15:05:15.968Z,2.47
2019-03-25T15:07:44.401Z,2.50
2019-03-25T15:10:13.556Z,2.62
2019-03-25T15:12:42.067Z,2.62
2019-03-25T15:15:11.416Z,2.45
2019-03-25T15:17:39.863Z,2.70
2019-03-25T15:20:10.049Z,2.33
2019-03-25T15:22:38.991Z,2.40
2019-03-25T15:25:09.071Z,2.65
2019-03-25T15:27:37.633Z,2.70
2019-03-25T15:30:08.938Z,2.75
2019-03-25T15:32:37.391Z,3.00
2019-03-25T15:35:08.494Z,2.58
2019-03-25T15:37:36.935Z,2.98
2019-03-25T15:40:10.501Z,2.80
2019-03-25T15:42:39.172Z,2.65
2019-03-25T15:45:08.313Z,2.85
2019-03-25T15:47:36.868Z,2.80
2019-03-25T15:50:08.727Z,3.10
2019-03-25T15:52:38.337Z,2.60
2019-03-25T15:55:07.396Z,2.80
2019-03-25T15:57:36.040Z,2.70
2019-03-25T16:00:08.134Z,2.60
2019-03-25T16:02:36.585Z,2.90
2019-03-25T16:05:06.403Z,2.45
2019-03-25T16:07:34.848Z,3.27
2019-03-25T16:10:04.648Z,2.83
2019-03-25T16:12:33.125Z,2.67
2019-03-25T16:15:01.656Z,3.20
2019-03-25T16:17:30.241Z,3.30
2019-03-25T16:19:58.742Z,3.40
2019-03-25T16:22:27.178Z,3.33
2019-03-25T16:24:55.615Z,2.80
2019-03-25T16:27:24.125Z,3.80
2019-03-25T16:29:52.594Z,3.17
2019-03-25T16:32:21.111Z,3.27
2019-03-25T16:34:49.587Z,3.30
2019-03-25T16:37:19.564Z,3.40
2019-03-25T16:39:48.007Z,3.37
2019-03-25T16:42:16.595Z,3.27
2019-03-25T16:44:45.050Z,3.50
2019-03-25T16:47:13.497Z,2.98
2019-03-25T16:49:42.136Z,3.42
2019-03-25T16:52:10.653Z,3.52
2019-03-25T16:54:39.181Z,3.65
2019-03-25T16:57:07.660Z,3.52
2019-03-25T16:59:36.113Z,3.70
2019-03-25T17:02:04.797Z,4.42
2019-03-25T17:04:33.372Z,4.25
2019-03-25T17:07:01.928Z,3.70
2019-03-25T17:09:30.437Z,3.75
2019-03-25T17:11:58.919Z,3.58
2019-03-25T17:14:27.402Z,4.08
2019-03-25T17:16:55.850Z,3.98
2019-03-25T17:19:24.404Z,4.10
2019-03-25T17:21:57.943Z,5.00
2019-03-25T17:24:23.082Z,6.03
2019-03-25T17:26:51.563Z,5.87
2019-03-25T17:29:20.012Z,5.42
2019-03-25T17:31:48.451Z,6.83
2019-03-25T17:34:16.969Z,6.53
2019-03-25T17:36:45.447Z,6.08
2019-03-25T17:39:13.916Z,4.62
2019-03-25T17:41:42.396Z,4.92
2019-03-25T17:44:10.866Z,4.83
2019-03-25T17:46:39.406Z,4.40
2019-03-25T17:49:07.887Z,4.25
2019-03-25T17:51:36.332Z,4.22
2019-03-25T17:54:04.856Z,4.00
2019-03-25T17:56:33.351Z,3.80
2019-03-25T17:59:01.804Z,3.60
2019-03-25T18:01:32.751Z,3.40
2019-03-25T18:04:05.031Z,3.58
2019-03-25T18:06:33.502Z,3.72
2019-03-25T18:09:02.067Z,3.70
2019-03-25T18:11:30.536Z,3.80
2019-03-25T18:13:58.985Z,3.40
2019-03-25T18:16:27.442Z,3.77
2019-03-25T18:18:55.927Z,3.62
2019-03-25T18:21:24.410Z,4.40
2019-03-25T18:23:52.887Z,4.60
2019-03-25T18:26:21.434Z,4.65
2019-03-25T18:28:49.883Z,4.33
2019-03-25T18:31:18.335Z,4.75
2019-03-25T18:33:46.891Z,4.60
2019-03-25T18:36:15.337Z,4.12
2019-03-25T18:38:43.982Z,3.95
2019-03-25T18:41:13.293Z,3.98
2019-03-25T18:43:41.944Z,4.40
2019-03-25T18:46:10.410Z,4.22
2019-03-25T18:48:38.965Z,4.58
2019-03-25T18:51:07.419Z,5.47
2019-03-25T18:53:35.947Z,5.42
2019-03-25T18:56:04.496Z,6.20
2019-03-25T18:58:33.008Z,5.55
2019-03-25T19:01:01.734Z,5.70
2019-03-25T19:03:30.287Z,6.62
2019-03-25T19:05:58.727Z,6.53
2019-03-25T19:08:27.524Z,6.10
2019-03-25T19:10:56.063Z,7.08
2019-03-25T19:13:24.515Z,6.03
2019-03-25T19:15:53.080Z,6.17
2019-03-25T19:18:21.727Z,5.83
2019-03-25T19:20:50.234Z,6.00
2019-03-25T19:23:18.956Z,5.45
2019-03-25T19:25:47.610Z,5.47
2019-03-25T19:28:16.120Z,4.85
2019-03-25T19:30:44.695Z,5.08
2019-03-25T19:33:13.326Z,4.55
2019-03-25T19:38:24.223Z,4.97
2019-03-25T19:40:53.053Z,5.17
2019-03-25T19:43:21.729Z,5.05
2019-03-25T19:45:50.235Z,4.97
2019-03-25T19:48:18.967Z,5.33
2019-03-25T19:50:47.528Z,5.50
2019-03-25T19:53:19.354Z,4.25
2019-03-25T19:55:46.322Z,4.87
2019-03-25T19:58:19.053Z,4.45
2019-03-25T20:00:47.818Z,5.12
2019-03-25T20:03:16.346Z,5.83
2019-03-25T20:05:44.921Z,5.40
2019-03-25T20:08:13.533Z,5.50
2019-03-25T20:10:43.605Z,5.42
2019-03-25T20:13:12.140Z,5.90
2019-03-25T20:15:46.465Z,5.78
2019-03-25T20:18:10.868Z,5.10
2019-03-25T20:20:39.407Z,4.70
2019-03-25T20:23:07.998Z,4.33
2019-03-25T20:25:36.484Z,4.00
2019-03-25T20:28:05.396Z,4.22
2019-03-25T20:30:34.004Z,4.50
2019-03-25T20:33:02.662Z,3.92
2019-03-25T20:35:31.172Z,4.65
2019-03-25T20:37:59.741Z,4.87
2019-03-25T20:40:28.318Z,3.90
2019-03-25T20:42:56.817Z,4.22
2019-03-25T20:45:25.329Z,4.30
2019-03-25T20:47:53.908Z,5.25
2019-03-25T20:50:22.386Z,5.83
2019-03-25T20:52:51.140Z,6.30
2019-03-25T20:55:19.666Z,6.45
2019-03-25T20:57:48.454Z,5.45
2019-03-25T21:00:20.229Z,5.50
2019-03-25T21:02:48.754Z,6.40
2019-03-25T21:05:17.469Z,5.60
2019-03-25T21:07:46.024Z,6.25
2019-03-25T21:10:14.635Z,6.50
2019-03-25T21:12:43.166Z,6.28
2019-03-25T21:15:11.884Z,6.50
2019-03-25T21:17:40.606Z,6.35
2019-03-25T21:20:09.778Z,6.55
2019-03-25T21:22:38.289Z,6.28
2019-03-25T21:25:07.374Z,6.75
2019-03-25T21:27:36.011Z,7.00
2019-03-25T21:30:07.264Z,6.67
2019-03-25T21:32:35.730Z,6.70
2019-03-25T21:35:23.573Z,6.80
2019-03-25T21:37:52.169Z,6.28
2019-03-25T21:40:20.669Z,6.58
2019-03-25T21:42:49.301Z,7.53
2019-03-25T21:45:37.188Z,7.42
2019-03-25T21:48:05.766Z,7.30
2019-03-25T21:50:34.533Z,7.45
2019-03-25T21:53:03.062Z,7.83
2019-03-25T21:55:31.655Z,8.18
2019-03-25T21:58:00.323Z,8.55
2019-03-25T22:00:28.997Z,7.75
2019-03-25T22:03:06.694Z,7.97
2019-03-25T22:05:27.718Z,8.88
2019-03-25T22:07:56.168Z,9.63
2019-03-25T22:10:24.647Z,10.53
2019-03-25T22:12:53.088Z,8.90
2019-03-25T22:15:21.536Z,8.90
2019-03-25T22:17:49.997Z,7.90
2019-03-25T22:20:18.503Z,7.70
2019-03-25T22:22:47.019Z,7.75
2019-03-25T22:25:15.645Z,7.08
2019-03-25T22:27:44.086Z,7.83
2019-03-25T22:30:13.162Z,6.85
2019-03-25T22:32:41.663Z,8.08
2019-03-25T22:35:10.247Z,7.67
2019-03-25T22:37:38.827Z,7.65
2019-03-25T22:40:28.209Z,6.80
2019-03-25T22:42:56.729Z,7.20
2019-03-25T22:45:37.772Z,7.80
2019-03-25T22:48:07.403Z,7.72
2019-03-25T22:50:36.294Z,7.03
2019-03-25T22:53:04.967Z,7.28
2019-03-25T22:55:33.556Z,8.10
2019-03-25T22:58:01.993Z,8.03
2019-03-25T23:00:41.365Z,8.25
2019-03-25T23:03:09.809Z,7.47
2019-03-25T23:05:38.320Z,7.28
2019-03-25T23:08:06.785Z,9.38
2019-03-25T23:10:35.224Z,11.93
2019-03-25T23:13:03.762Z,13.40
2019-03-25T23:15:32.302Z,14.15
2019-03-25T23:18:00.804Z,12.05
2019-03-25T23:20:29.253Z,12.18
2019-03-25T23:22:57.730Z,11.28
2019-03-25T23:25:26.186Z,11.65
2019-03-25T23:27:54.630Z,10.93
2019-03-25T23:30:23.122Z,11.55
2019-03-25T23:32:51.567Z,11.80
2019-03-25T23:35:20.081Z,11.25
2019-03-25T23:37:48.564Z,10.65
2019-03-25T23:40:17.030Z,9.98
2019-03-25T23:42:45.539Z,10.45
2019-03-25T23:45:14.659Z,11.20
2019-03-25T23:47:43.108Z,10.45
2019-03-25T23:50:11.797Z,10.40
2019-03-25T23:52:40.267Z,11.12
2019-03-25T23:55:08.746Z,10.58
2019-03-25T23:57:37.255Z,11.00
